sensor_id;sensor_type;location;lat;lon;timestamp;P1;durP1;ratioP1;P2;durP2;ratioP2
5638;SDS011;2841;44.526;11.360;2023-05-09T00:01:04;13.17;;;7.57;;
5638;SDS011;2841;44.526;11.360;2023-05-09T00:03:33;10.90;;;7.40;;
5638;SDS011;2841;44.526;11.360;2023-05-09T00:06:00;11.13;;;7.23;;
5638;SDS011;2841;44.526;11.360;2023-05-09T00:08:28;12.43;;;6.87;;
5638;SDS011;2841;44.526;11.360;2023-05-09T00:10:55;11.87;;;7.50;;
5638;SDS011;2841;44.526;11.360;2023-05-09T00:13:22;9.43;;;6.93;;
5638;SDS011;2841;44.526;11.360;2023-05-09T00:15:49;9.97;;;6.67;;
5638;SDS011;2841;44.526;11.360;2023-05-09T00:18:18;9.93;;;6.37;;
5638;SDS011;2841;44.526;11.360;2023-05-09T00:20:47;10.07;;;6.57;;
5638;SDS011;2841;44.526;11.360;2023-05-09T00:23:14;10.83;;;7.07;;
5638;SDS011;2841;44.526;11.360;2023-05-09T00:25:42;15.70;;;6.10;;
5638;SDS011;2841;44.526;11.360;2023-05-09T00:28:09;10.13;;;6.90;;
5638;SDS011;2841;44.526;11.360;2023-05-09T00:30:36;9.90;;;6.40;;
5638;SDS011;2841;44.526;11.360;2023-05-09T00:33:04;10.33;;;7.20;;
5638;SDS011;2841;44.526;11.360;2023-05-09T00:35:31;9.60;;;6.20;;
5638;SDS011;2841;44.526;11.360;2023-05-09T00:38:00;10.10;;;5.57;;
5638;SDS011;2841;44.526;11.360;2023-05-09T00:40:27;8.93;;;5.87;;
5638;SDS011;2841;44.526;11.360;2023-05-09T00:42:55;9.37;;;6.00;;
5638;SDS011;2841;44.526;11.360;2023-05-09T00:45:23;11.07;;;5.67;;
5638;SDS011;2841;44.526;11.360;2023-05-09T00:47:50;8.00;;;6.03;;
5638;SDS011;2841;44.526;11.360;2023-05-09T00:50:17;8.83;;;6.10;;
5638;SDS011;2841;44.526;11.360;2023-05-09T00:52:45;10.53;;;6.60;;
5638;SDS011;2841;44.526;11.360;2023-05-09T00:55:13;11.13;;;6.63;;
5638;SDS011;2841;44.526;11.360;2023-05-09T00:57:41;12.13;;;7.20;;
5638;SDS011;2841;44.526;11.360;2023-05-09T01:00:09;9.50;;;6.73;;
5638;SDS011;2841;44.526;11.360;2023-05-09T01:02:37;10.90;;;7.83;;
5638;SDS011;2841;44.526;11.360;2023-05-09T01:05:05;14.27;;;7.70;;
5638;SDS011;2841;44.526;11.360;2023-05-09T01:07:34;14.63;;;7.00;;
5638;SDS011;2841;44.526;11.360;2023-05-09T01:10:08;12.33;;;7.60;;
5638;SDS011;2841;44.526;11.360;2023-05-09T01:12:45;11.77;;;6.30;;
5638;SDS011;2841;44.526;11.360;2023-05-09T01:15:19;12.10;;;8.07;;
5638;SDS011;2841;44.526;11.360;2023-05-09T01:17:52;12.63;;;7.40;;
5638;SDS011;2841;44.526;11.360;2023-05-09T01:20:25;17.00;;;6.60;;
5638;SDS011;2841;44.526;11.360;2023-05-09T01:23:00;11.50;;;6.57;;
5638;SDS011;2841;44.526;11.360;2023-05-09T01:25:48;10.20;;;6.70;;
5638;SDS011;2841;44.526;11.360;2023-05-09T01:28:28;18.90;;;8.63;;
5638;SDS011;2841;44.526;11.360;2023-05-09T01:31:03;11.80;;;6.67;;
5638;SDS011;2841;44.526;11.360;2023-05-09T01:33:34;11.67;;;7.70;;
5638;SDS011;2841;44.526;11.360;2023-05-09T01:36:07;8.00;;;5.33;;
5638;SDS011;2841;44.526;11.360;2023-05-09T01:38:38;10.47;;;6.30;;
5638;SDS011;2841;44.526;11.360;2023-05-09T01:41:09;8.30;;;5.80;;
5638;SDS011;2841;44.526;11.360;2023-05-09T01:43:41;8.43;;;6.10;;
5638;SDS011;2841;44.526;11.360;2023-05-09T01:46:11;10.70;;;6.70;;
5638;SDS011;2841;44.526;11.360;2023-05-09T01:48:39;12.23;;;6.90;;
5638;SDS011;2841;44.526;11.360;2023-05-09T01:51:08;10.87;;;6.63;;
5638;SDS011;2841;44.526;11.360;2023-05-09T01:53:36;10.77;;;7.30;;
5638;SDS011;2841;44.526;11.360;2023-05-09T01:56:04;10.37;;;7.10;;
5638;SDS011;2841;44.526;11.360;2023-05-09T01:58:33;10.30;;;7.17;;
5638;SDS011;2841;44.526;11.360;2023-05-09T02:01:02;16.07;;;7.17;;
5638;SDS011;2841;44.526;11.360;2023-05-09T02:03:32;10.57;;;6.90;;
5638;SDS011;2841;44.526;11.360;2023-05-09T02:06:01;9.50;;;6.47;;
5638;SDS011;2841;44.526;11.360;2023-05-09T02:08:30;9.10;;;5.90;;
5638;SDS011;2841;44.526;11.360;2023-05-09T02:10:58;8.37;;;5.67;;
5638;SDS011;2841;44.526;11.360;2023-05-09T02:13:25;8.57;;;6.17;;
5638;SDS011;2841;44.526;11.360;2023-05-09T02:15:53;10.90;;;6.53;;
5638;SDS011;2841;44.526;11.360;2023-05-09T02:18:21;8.67;;;6.20;;
5638;SDS011;2841;44.526;11.360;2023-05-09T02:20:50;9.77;;;6.60;;
5638;SDS011;2841;44.526;11.360;2023-05-09T02:23:17;8.83;;;6.77;;
5638;SDS011;2841;44.526;11.360;2023-05-09T02:25:45;12.90;;;6.03;;
5638;SDS011;2841;44.526;11.360;2023-05-09T02:28:12;8.80;;;6.43;;
5638;SDS011;2841;44.526;11.360;2023-05-09T02:30:41;10.13;;;5.83;;
5638;SDS011;2841;44.526;11.360;2023-05-09T02:33:10;9.97;;;5.63;;
5638;SDS011;2841;44.526;11.360;2023-05-09T02:35:39;10.53;;;6.13;;
5638;SDS011;2841;44.526;11.360;2023-05-09T02:38:10;17.67;;;5.80;;
5638;SDS011;2841;44.526;11.360;2023-05-09T02:40:38;10.90;;;6.83;;
5638;SDS011;2841;44.526;11.360;2023-05-09T02:43:07;6.00;;;4.20;;
5638;SDS011;2841;44.526;11.360;2023-05-09T02:45:35;9.33;;;6.17;;
5638;SDS011;2841;44.526;11.360;2023-05-09T02:48:02;14.30;;;5.33;;
5638;SDS011;2841;44.526;11.360;2023-05-09T02:50:31;9.50;;;6.30;;
5638;SDS011;2841;44.526;11.360;2023-05-09T02:52:58;10.97;;;6.77;;
5638;SDS011;2841;44.526;11.360;2023-05-09T02:55:26;6.87;;;4.90;;
5638;SDS011;2841;44.526;11.360;2023-05-09T02:57:53;14.97;;;5.40;;
5638;SDS011;2841;44.526;11.360;2023-05-09T03:00:20;6.73;;;5.23;;
5638;SDS011;2841;44.526;11.360;2023-05-09T03:02:49;11.87;;;5.87;;
5638;SDS011;2841;44.526;11.360;2023-05-09T03:05:17;8.50;;;5.53;;
5638;SDS011;2841;44.526;11.360;2023-05-09T03:07:44;12.03;;;5.87;;
5638;SDS011;2841;44.526;11.360;2023-05-09T03:10:11;7.50;;;5.40;;
5638;SDS011;2841;44.526;11.360;2023-05-09T03:12:40;10.10;;;5.83;;
5638;SDS011;2841;44.526;11.360;2023-05-09T03:15:08;7.47;;;5.40;;
5638;SDS011;2841;44.526;11.360;2023-05-09T03:17:35;6.87;;;4.87;;
5638;SDS011;2841;44.526;11.360;2023-05-09T03:20:03;11.20;;;5.00;;
5638;SDS011;2841;44.526;11.360;2023-05-09T03:22:31;11.83;;;6.23;;
5638;SDS011;2841;44.526;11.360;2023-05-09T03:24:58;12.37;;;7.00;;
5638;SDS011;2841;44.526;11.360;2023-05-09T03:27:26;8.20;;;5.23;;
5638;SDS011;2841;44.526;11.360;2023-05-09T03:29:54;8.43;;;5.30;;
5638;SDS011;2841;44.526;11.360;2023-05-09T03:32:21;12.00;;;5.53;;
5638;SDS011;2841;44.526;11.360;2023-05-09T03:34:48;11.13;;;5.73;;
5638;SDS011;2841;44.526;11.360;2023-05-09T03:37:16;7.93;;;5.47;;
5638;SDS011;2841;44.526;11.360;2023-05-09T03:39:43;7.80;;;5.70;;
5638;SDS011;2841;44.526;11.360;2023-05-09T03:42:10;9.43;;;5.37;;
5638;SDS011;2841;44.526;11.360;2023-05-09T03:44:37;9.60;;;5.30;;
5638;SDS011;2841;44.526;11.360;2023-05-09T03:47:06;7.53;;;5.27;;
5638;SDS011;2841;44.526;11.360;2023-05-09T03:49:34;7.07;;;4.70;;
5638;SDS011;2841;44.526;11.360;2023-05-09T03:52:01;7.87;;;5.67;;
5638;SDS011;2841;44.526;11.360;2023-05-09T03:54:29;12.70;;;5.80;;
5638;SDS011;2841;44.526;11.360;2023-05-09T03:56:56;9.43;;;5.00;;
5638;SDS011;2841;44.526;11.360;2023-05-09T03:59:23;9.40;;;6.10;;
5638;SDS011;2841;44.526;11.360;2023-05-09T04:01:50;10.00;;;5.67;;
5638;SDS011;2841;44.526;11.360;2023-05-09T04:04:19;6.40;;;4.70;;
5638;SDS011;2841;44.526;11.360;2023-05-09T04:06:46;7.20;;;5.03;;
5638;SDS011;2841;44.526;11.360;2023-05-09T04:09:13;6.10;;;4.80;;
5638;SDS011;2841;44.526;11.360;2023-05-09T04:11:41;8.33;;;5.80;;
5638;SDS011;2841;44.526;11.360;2023-05-09T04:14:08;11.70;;;5.60;;
5638;SDS011;2841;44.526;11.360;2023-05-09T04:16:36;8.90;;;6.10;;
5638;SDS011;2841;44.526;11.360;2023-05-09T04:19:03;10.23;;;6.43;;
5638;SDS011;2841;44.526;11.360;2023-05-09T04:21:32;7.70;;;5.33;;
5638;SDS011;2841;44.526;11.360;2023-05-09T04:23:59;19.23;;;5.50;;
5638;SDS011;2841;44.526;11.360;2023-05-09T04:26:27;9.53;;;6.27;;
5638;SDS011;2841;44.526;11.360;2023-05-09T04:28:55;8.77;;;5.20;;
5638;SDS011;2841;44.526;11.360;2023-05-09T04:31:22;7.73;;;5.13;;
5638;SDS011;2841;44.526;11.360;2023-05-09T04:33:50;7.00;;;4.87;;
5638;SDS011;2841;44.526;11.360;2023-05-09T04:36:17;12.07;;;7.07;;
5638;SDS011;2841;44.526;11.360;2023-05-09T04:38:48;7.83;;;4.90;;
5638;SDS011;2841;44.526;11.360;2023-05-09T04:41:15;11.43;;;6.07;;
5638;SDS011;2841;44.526;11.360;2023-05-09T04:43:43;12.10;;;6.30;;
5638;SDS011;2841;44.526;11.360;2023-05-09T04:46:10;6.50;;;4.63;;
5638;SDS011;2841;44.526;11.360;2023-05-09T04:48:37;9.33;;;5.83;;
5638;SDS011;2841;44.526;11.360;2023-05-09T04:51:04;8.90;;;6.23;;
5638;SDS011;2841;44.526;11.360;2023-05-09T04:53:32;8.80;;;5.90;;
5638;SDS011;2841;44.526;11.360;2023-05-09T04:56:01;9.07;;;5.13;;
5638;SDS011;2841;44.526;11.360;2023-05-09T04:58:28;13.13;;;7.17;;
5638;SDS011;2841;44.526;11.360;2023-05-09T05:00:57;11.67;;;4.97;;
5638;SDS011;2841;44.526;11.360;2023-05-09T05:03:24;8.17;;;5.80;;
5638;SDS011;2841;44.526;11.360;2023-05-09T05:05:51;15.40;;;8.00;;
5638;SDS011;2841;44.526;11.360;2023-05-09T05:08:18;8.90;;;5.70;;
5638;SDS011;2841;44.526;11.360;2023-05-09T05:10:45;22.07;;;5.97;;
5638;SDS011;2841;44.526;11.360;2023-05-09T05:13:15;10.87;;;6.60;;
5638;SDS011;2841;44.526;11.360;2023-05-09T05:15:42;8.63;;;5.63;;
5638;SDS011;2841;44.526;11.360;2023-05-09T05:18:09;10.43;;;6.40;;
5638;SDS011;2841;44.526;11.360;2023-05-09T05:20:38;10.03;;;5.97;;
5638;SDS011;2841;44.526;11.360;2023-05-09T05:23:06;18.53;;;7.53;;
5638;SDS011;2841;44.526;11.360;2023-05-09T05:25:33;12.00;;;6.63;;
5638;SDS011;2841;44.526;11.360;2023-05-09T05:28:01;17.43;;;7.10;;
5638;SDS011;2841;44.526;11.360;2023-05-09T05:30:29;13.23;;;6.50;;
5638;SDS011;2841;44.526;11.360;2023-05-09T05:32:57;13.40;;;6.83;;
5638;SDS011;2841;44.526;11.360;2023-05-09T05:35:24;10.57;;;7.13;;
5638;SDS011;2841;44.526;11.360;2023-05-09T05:37:52;15.17;;;7.13;;
5638;SDS011;2841;44.526;11.360;2023-05-09T05:40:20;13.83;;;7.73;;
5638;SDS011;2841;44.526;11.360;2023-05-09T05:42:47;12.83;;;6.23;;
5638;SDS011;2841;44.526;11.360;2023-05-09T05:45:14;10.10;;;6.03;;
5638;SDS011;2841;44.526;11.360;2023-05-09T05:47:43;12.80;;;7.20;;
5638;SDS011;2841;44.526;11.360;2023-05-09T05:50:10;10.10;;;6.40;;
5638;SDS011;2841;44.526;11.360;2023-05-09T05:52:37;12.87;;;7.30;;
5638;SDS011;2841;44.526;11.360;2023-05-09T05:55:05;20.03;;;7.70;;
5638;SDS011;2841;44.526;11.360;2023-05-09T05:57:32;9.93;;;7.10;;
5638;SDS011;2841;44.526;11.360;2023-05-09T06:00:01;10.93;;;6.97;;
5638;SDS011;2841;44.526;11.360;2023-05-09T06:02:31;15.77;;;6.93;;
5638;SDS011;2841;44.526;11.360;2023-05-09T06:04:59;13.60;;;7.33;;
5638;SDS011;2841;44.526;11.360;2023-05-09T06:07:27;15.23;;;7.80;;
5638;SDS011;2841;44.526;11.360;2023-05-09T06:09:55;11.80;;;6.23;;
5638;SDS011;2841;44.526;11.360;2023-05-09T06:12:22;13.87;;;7.23;;
5638;SDS011;2841;44.526;11.360;2023-05-09T06:14:49;13.37;;;7.67;;
5638;SDS011;2841;44.526;11.360;2023-05-09T06:17:16;9.43;;;6.43;;
5638;SDS011;2841;44.526;11.360;2023-05-09T06:19:44;14.50;;;6.93;;
5638;SDS011;2841;44.526;11.360;2023-05-09T06:22:12;12.10;;;7.27;;
5638;SDS011;2841;44.526;11.360;2023-05-09T06:24:40;11.80;;;7.20;;
5638;SDS011;2841;44.526;11.360;2023-05-09T06:27:07;16.20;;;7.50;;
5638;SDS011;2841;44.526;11.360;2023-05-09T06:29:34;10.23;;;7.00;;
5638;SDS011;2841;44.526;11.360;2023-05-09T06:32:01;13.30;;;8.57;;
5638;SDS011;2841;44.526;11.360;2023-05-09T06:34:29;12.07;;;7.30;;
5638;SDS011;2841;44.526;11.360;2023-05-09T06:36:56;10.57;;;6.83;;
5638;SDS011;2841;44.526;11.360;2023-05-09T06:39:24;13.50;;;8.00;;
5638;SDS011;2841;44.526;11.360;2023-05-09T06:41:52;13.93;;;8.67;;
5638;SDS011;2841;44.526;11.360;2023-05-09T06:44:19;19.03;;;7.77;;
5638;SDS011;2841;44.526;11.360;2023-05-09T06:46:46;17.80;;;7.30;;
5638;SDS011;2841;44.526;11.360;2023-05-09T06:49:14;20.43;;;7.20;;
5638;SDS011;2841;44.526;11.360;2023-05-09T06:51:41;13.73;;;8.30;;
5638;SDS011;2841;44.526;11.360;2023-05-09T06:54:08;11.87;;;8.20;;
5638;SDS011;2841;44.526;11.360;2023-05-09T06:56:37;16.97;;;7.73;;
5638;SDS011;2841;44.526;11.360;2023-05-09T06:59:04;15.17;;;7.50;;
5638;SDS011;2841;44.526;11.360;2023-05-09T07:01:31;16.57;;;7.83;;
5638;SDS011;2841;44.526;11.360;2023-05-09T07:03:59;11.93;;;8.17;;
5638;SDS011;2841;44.526;11.360;2023-05-09T07:06:26;15.93;;;7.30;;
5638;SDS011;2841;44.526;11.360;2023-05-09T07:08:53;14.00;;;9.30;;
5638;SDS011;2841;44.526;11.360;2023-05-09T07:11:20;12.67;;;8.13;;
5638;SDS011;2841;44.526;11.360;2023-05-09T07:13:49;16.93;;;8.23;;
5638;SDS011;2841;44.526;11.360;2023-05-09T07:16:17;13.53;;;8.33;;
5638;SDS011;2841;44.526;11.360;2023-05-09T07:18:46;16.87;;;9.20;;
5638;SDS011;2841;44.526;11.360;2023-05-09T07:21:14;17.47;;;7.67;;
5638;SDS011;2841;44.526;11.360;2023-05-09T07:23:41;16.43;;;7.53;;
5638;SDS011;2841;44.526;11.360;2023-05-09T07:26:08;12.70;;;8.73;;
5638;SDS011;2841;44.526;11.360;2023-05-09T07:28:35;15.00;;;8.33;;
5638;SDS011;2841;44.526;11.360;2023-05-09T07:31:04;18.30;;;8.73;;
5638;SDS011;2841;44.526;11.360;2023-05-09T07:33:33;14.07;;;8.20;;
5638;SDS011;2841;44.526;11.360;2023-05-09T07:36:00;16.50;;;8.27;;
5638;SDS011;2841;44.526;11.360;2023-05-09T07:38:28;15.20;;;9.40;;
5638;SDS011;2841;44.526;11.360;2023-05-09T07:40:55;15.37;;;9.27;;
5638;SDS011;2841;44.526;11.360;2023-05-09T07:43:22;15.00;;;8.20;;
5638;SDS011;2841;44.526;11.360;2023-05-09T07:45:49;20.73;;;8.60;;
5638;SDS011;2841;44.526;11.360;2023-05-09T07:48:18;16.47;;;9.27;;
5638;SDS011;2841;44.526;11.360;2023-05-09T07:50:45;15.50;;;9.77;;
5638;SDS011;2841;44.526;11.360;2023-05-09T07:53:12;23.50;;;9.37;;
5638;SDS011;2841;44.526;11.360;2023-05-09T07:55:39;18.47;;;9.67;;
5638;SDS011;2841;44.526;11.360;2023-05-09T07:58:08;17.90;;;9.10;;
5638;SDS011;2841;44.526;11.360;2023-05-09T08:00:36;15.60;;;8.60;;
5638;SDS011;2841;44.526;11.360;2023-05-09T08:03:03;16.80;;;8.63;;
5638;SDS011;2841;44.526;11.360;2023-05-09T08:05:31;14.83;;;9.67;;
5638;SDS011;2841;44.526;11.360;2023-05-09T08:07:58;17.70;;;8.50;;
5638;SDS011;2841;44.526;11.360;2023-05-09T08:10:28;19.27;;;9.63;;
5638;SDS011;2841;44.526;11.360;2023-05-09T08:13:01;15.30;;;9.53;;
5638;SDS011;2841;44.526;11.360;2023-05-09T08:15:28;16.23;;;9.97;;
5638;SDS011;2841;44.526;11.360;2023-05-09T08:17:55;14.30;;;9.03;;
5638;SDS011;2841;44.526;11.360;2023-05-09T08:20:23;17.17;;;10.70;;
5638;SDS011;2841;44.526;11.360;2023-05-09T08:22:51;12.63;;;8.30;;
5638;SDS011;2841;44.526;11.360;2023-05-09T08:25:18;12.23;;;8.43;;
5638;SDS011;2841;44.526;11.360;2023-05-09T08:27:46;15.97;;;8.47;;
5638;SDS011;2841;44.526;11.360;2023-05-09T08:30:13;14.07;;;9.13;;
5638;SDS011;2841;44.526;11.360;2023-05-09T08:32:41;15.50;;;8.40;;
5638;SDS011;2841;44.526;11.360;2023-05-09T08:35:08;15.17;;;8.73;;
5638;SDS011;2841;44.526;11.360;2023-05-09T08:37:35;17.10;;;8.73;;
5638;SDS011;2841;44.526;11.360;2023-05-09T08:40:04;19.17;;;8.47;;
5638;SDS011;2841;44.526;11.360;2023-05-09T08:42:32;14.07;;;8.60;;
5638;SDS011;2841;44.526;11.360;2023-05-09T08:45:05;23.33;;;9.67;;
5638;SDS011;2841;44.526;11.360;2023-05-09T08:47:34;16.70;;;9.60;;
5638;SDS011;2841;44.526;11.360;2023-05-09T08:50:02;24.80;;;9.07;;
5638;SDS011;2841;44.526;11.360;2023-05-09T08:52:30;15.90;;;7.50;;
5638;SDS011;2841;44.526;11.360;2023-05-09T08:54:58;21.17;;;9.20;;
5638;SDS011;2841;44.526;11.360;2023-05-09T08:57:27;20.93;;;9.17;;
5638;SDS011;2841;44.526;11.360;2023-05-09T08:59:54;17.43;;;8.90;;
5638;SDS011;2841;44.526;11.360;2023-05-09T09:02:22;23.57;;;10.10;;
5638;SDS011;2841;44.526;11.360;2023-05-09T09:04:49;18.23;;;9.90;;
5638;SDS011;2841;44.526;11.360;2023-05-09T09:07:16;18.03;;;10.30;;
5638;SDS011;2841;44.526;11.360;2023-05-09T09:09:46;20.60;;;9.67;;
5638;SDS011;2841;44.526;11.360;2023-05-09T09:12:15;29.10;;;11.80;;
5638;SDS011;2841;44.526;11.360;2023-05-09T09:14:47;23.03;;;10.50;;
5638;SDS011;2841;44.526;11.360;2023-05-09T09:17:17;20.30;;;10.30;;
5638;SDS011;2841;44.526;11.360;2023-05-09T09:19:46;35.00;;;11.97;;
5638;SDS011;2841;44.526;11.360;2023-05-09T09:22:15;23.40;;;11.23;;
5638;SDS011;2841;44.526;11.360;2023-05-09T09:24:45;23.43;;;12.37;;
5638;SDS011;2841;44.526;11.360;2023-05-09T09:27:12;15.57;;;11.23;;
5638;SDS011;2841;44.526;11.360;2023-05-09T09:29:39;20.00;;;10.97;;
5638;SDS011;2841;44.526;11.360;2023-05-09T09:32:08;17.57;;;11.40;;
5638;SDS011;2841;44.526;11.360;2023-05-09T09:34:35;14.50;;;9.10;;
5638;SDS011;2841;44.526;11.360;2023-05-09T09:37:03;25.97;;;10.50;;
5638;SDS011;2841;44.526;11.360;2023-05-09T09:39:33;16.90;;;9.77;;
5638;SDS011;2841;44.526;11.360;2023-05-09T09:42:08;17.07;;;9.60;;
5638;SDS011;2841;44.526;11.360;2023-05-09T09:44:36;13.00;;;8.73;;
5638;SDS011;2841;44.526;11.360;2023-05-09T09:47:03;12.90;;;8.70;;
5638;SDS011;2841;44.526;11.360;2023-05-09T09:49:36;28.77;;;10.23;;
5638;SDS011;2841;44.526;11.360;2023-05-09T09:52:10;16.00;;;9.23;;
5638;SDS011;2841;44.526;11.360;2023-05-09T09:54:37;15.30;;;10.53;;
5638;SDS011;2841;44.526;11.360;2023-05-09T09:57:04;13.30;;;9.57;;
5638;SDS011;2841;44.526;11.360;2023-05-09T09:59:32;16.97;;;9.17;;
5638;SDS011;2841;44.526;11.360;2023-05-09T10:01:59;15.20;;;9.00;;
5638;SDS011;2841;44.526;11.360;2023-05-09T10:04:30;12.60;;;9.43;;
5638;SDS011;2841;44.526;11.360;2023-05-09T10:06:58;16.80;;;9.33;;
5638;SDS011;2841;44.526;11.360;2023-05-09T10:09:27;12.27;;;8.20;;
5638;SDS011;2841;44.526;11.360;2023-05-09T10:11:55;29.97;;;9.13;;
5638;SDS011;2841;44.526;11.360;2023-05-09T10:14:26;20.97;;;10.77;;
5638;SDS011;2841;44.526;11.360;2023-05-09T10:16:56;19.83;;;9.43;;
5638;SDS011;2841;44.526;11.360;2023-05-09T10:19:26;18.40;;;9.97;;
5638;SDS011;2841;44.526;11.360;2023-05-09T10:21:57;12.83;;;9.10;;
5638;SDS011;2841;44.526;11.360;2023-05-09T10:24:27;17.03;;;10.40;;
5638;SDS011;2841;44.526;11.360;2023-05-09T10:27:01;12.20;;;8.70;;
5638;SDS011;2841;44.526;11.360;2023-05-09T10:29:33;22.50;;;10.37;;
5638;SDS011;2841;44.526;11.360;2023-05-09T10:32:01;12.00;;;9.00;;
5638;SDS011;2841;44.526;11.360;2023-05-09T10:34:38;14.93;;;10.13;;
5638;SDS011;2841;44.526;11.360;2023-05-09T10:37:09;16.77;;;10.40;;
5638;SDS011;2841;44.526;11.360;2023-05-09T10:39:36;17.03;;;11.57;;
5638;SDS011;2841;44.526;11.360;2023-05-09T10:42:04;17.63;;;11.30;;
5638;SDS011;2841;44.526;11.360;2023-05-09T10:44:33;17.93;;;10.57;;
5638;SDS011;2841;44.526;11.360;2023-05-09T10:47:01;15.80;;;9.17;;
5638;SDS011;2841;44.526;11.360;2023-05-09T10:49:31;15.47;;;11.60;;
5638;SDS011;2841;44.526;11.360;2023-05-09T10:51:59;14.07;;;10.53;;
5638;SDS011;2841;44.526;11.360;2023-05-09T10:54:28;20.13;;;11.10;;
5638;SDS011;2841;44.526;11.360;2023-05-09T10:56:58;21.07;;;9.37;;
5638;SDS011;2841;44.526;11.360;2023-05-09T10:59:32;24.60;;;10.27;;
5638;SDS011;2841;44.526;11.360;2023-05-09T11:02:00;22.87;;;10.53;;
5638;SDS011;2841;44.526;11.360;2023-05-09T11:04:28;19.13;;;10.10;;
5638;SDS011;2841;44.526;11.360;2023-05-09T11:06:56;19.37;;;9.90;;
5638;SDS011;2841;44.526;11.360;2023-05-09T11:09:29;14.50;;;8.67;;
5638;SDS011;2841;44.526;11.360;2023-05-09T11:11:59;11.10;;;8.90;;
5638;SDS011;2841;44.526;11.360;2023-05-09T11:14:37;15.90;;;10.37;;
5638;SDS011;2841;44.526;11.360;2023-05-09T11:17:06;13.93;;;9.53;;
5638;SDS011;2841;44.526;11.360;2023-05-09T11:19:35;17.70;;;7.87;;
5638;SDS011;2841;44.526;11.360;2023-05-09T11:22:10;15.10;;;7.93;;
5638;SDS011;2841;44.526;11.360;2023-05-09T11:24:41;12.73;;;9.63;;
5638;SDS011;2841;44.526;11.360;2023-05-09T11:27:14;15.13;;;8.50;;
5638;SDS011;2841;44.526;11.360;2023-05-09T11:29:44;13.63;;;8.67;;
5638;SDS011;2841;44.526;11.360;2023-05-09T11:32:15;17.37;;;9.87;;
5638;SDS011;2841;44.526;11.360;2023-05-09T11:34:42;10.33;;;8.13;;
5638;SDS011;2841;44.526;11.360;2023-05-09T11:37:10;14.03;;;8.90;;
5638;SDS011;2841;44.526;11.360;2023-05-09T11:42:29;16.77;;;9.77;;
5638;SDS011;2841;44.526;11.360;2023-05-09T11:44:57;13.77;;;9.00;;
5638;SDS011;2841;44.526;11.360;2023-05-09T11:47:24;14.63;;;8.20;;
5638;SDS011;2841;44.526;11.360;2023-05-09T11:49:52;9.77;;;7.90;;
5638;SDS011;2841;44.526;11.360;2023-05-09T11:52:21;9.40;;;7.47;;
5638;SDS011;2841;44.526;11.360;2023-05-09T11:54:48;11.50;;;7.57;;
5638;SDS011;2841;44.526;11.360;2023-05-09T11:57:16;16.10;;;7.17;;
5638;SDS011;2841;44.526;11.360;2023-05-09T11:59:44;20.83;;;7.23;;
5638;SDS011;2841;44.526;11.360;2023-05-09T12:02:11;11.63;;;7.33;;
5638;SDS011;2841;44.526;11.360;2023-05-09T12:04:39;12.07;;;6.70;;
5638;SDS011;2841;44.526;11.360;2023-05-09T12:07:06;15.20;;;7.50;;
5638;SDS011;2841;44.526;11.360;2023-05-09T12:09:36;10.70;;;5.77;;
5638;SDS011;2841;44.526;11.360;2023-05-09T12:12:10;9.20;;;5.70;;
5638;SDS011;2841;44.526;11.360;2023-05-09T12:14:39;10.07;;;5.60;;
5638;SDS011;2841;44.526;11.360;2023-05-09T12:17:07;11.40;;;6.10;;
5638;SDS011;2841;44.526;11.360;2023-05-09T12:19:34;7.07;;;4.53;;
5638;SDS011;2841;44.526;11.360;2023-05-09T12:22:02;6.30;;;4.00;;
5638;SDS011;2841;44.526;11.360;2023-05-09T12:24:31;9.03;;;3.90;;
5638;SDS011;2841;44.526;11.360;2023-05-09T12:27:01;8.90;;;4.90;;
5638;SDS011;2841;44.526;11.360;2023-05-09T12:29:29;7.50;;;4.67;;
5638;SDS011;2841;44.526;11.360;2023-05-09T12:31:58;7.50;;;5.10;;
5638;SDS011;2841;44.526;11.360;2023-05-09T12:34:25;6.70;;;4.00;;
5638;SDS011;2841;44.526;11.360;2023-05-09T12:36:53;5.80;;;4.43;;
5638;SDS011;2841;44.526;11.360;2023-05-09T12:39:22;8.17;;;5.20;;
5638;SDS011;2841;44.526;11.360;2023-05-09T12:41:50;7.10;;;4.90;;
5638;SDS011;2841;44.526;11.360;2023-05-09T12:44:19;18.10;;;5.37;;
5638;SDS011;2841;44.526;11.360;2023-05-09T12:46:58;9.27;;;4.60;;
5638;SDS011;2841;44.526;11.360;2023-05-09T12:49:26;10.00;;;5.00;;
5638;SDS011;2841;44.526;11.360;2023-05-09T12:51:54;7.07;;;4.70;;
5638;SDS011;2841;44.526;11.360;2023-05-09T12:54:22;9.20;;;5.17;;
5638;SDS011;2841;44.526;11.360;2023-05-09T12:56:51;7.47;;;5.07;;
5638;SDS011;2841;44.526;11.360;2023-05-09T12:59:21;5.73;;;3.57;;
5638;SDS011;2841;44.526;11.360;2023-05-09T13:01:52;10.93;;;5.27;;
5638;SDS011;2841;44.526;11.360;2023-05-09T13:04:23;7.27;;;4.40;;
5638;SDS011;2841;44.526;11.360;2023-05-09T13:06:52;5.57;;;3.80;;
5638;SDS011;2841;44.526;11.360;2023-05-09T13:09:21;6.13;;;4.30;;
5638;SDS011;2841;44.526;11.360;2023-05-09T13:11:58;6.47;;;4.33;;
5638;SDS011;2841;44.526;11.360;2023-05-09T13:14:34;9.63;;;5.40;;
5638;SDS011;2841;44.526;11.360;2023-05-09T13:17:01;10.17;;;4.90;;
5638;SDS011;2841;44.526;11.360;2023-05-09T13:19:30;9.20;;;5.03;;
5638;SDS011;2841;44.526;11.360;2023-05-09T13:22:03;7.20;;;4.80;;
5638;SDS011;2841;44.526;11.360;2023-05-09T13:24:30;7.37;;;4.50;;
5638;SDS011;2841;44.526;11.360;2023-05-09T13:26:57;8.73;;;4.87;;
5638;SDS011;2841;44.526;11.360;2023-05-09T13:29:25;24.63;;;4.97;;
5638;SDS011;2841;44.526;11.360;2023-05-09T13:31:52;9.77;;;5.13;;
5638;SDS011;2841;44.526;11.360;2023-05-09T13:34:19;7.77;;;5.00;;
5638;SDS011;2841;44.526;11.360;2023-05-09T13:36:48;6.47;;;4.80;;
5638;SDS011;2841;44.526;11.360;2023-05-09T13:39:15;9.30;;;6.00;;
5638;SDS011;2841;44.526;11.360;2023-05-09T13:41:42;9.37;;;5.23;;
5638;SDS011;2841;44.526;11.360;2023-05-09T13:44:10;7.57;;;5.07;;
5638;SDS011;2841;44.526;11.360;2023-05-09T13:46:37;12.77;;;5.10;;
5638;SDS011;2841;44.526;11.360;2023-05-09T13:49:05;7.73;;;6.40;;
5638;SDS011;2841;44.526;11.360;2023-05-09T13:51:32;8.40;;;6.37;;
5638;SDS011;2841;44.526;11.360;2023-05-09T13:54:01;18.83;;;5.90;;
5638;SDS011;2841;44.526;11.360;2023-05-09T13:56:32;8.93;;;5.40;;
5638;SDS011;2841;44.526;11.360;2023-05-09T13:58:59;6.87;;;5.27;;
5638;SDS011;2841;44.526;11.360;2023-05-09T14:01:27;9.40;;;5.90;;
5638;SDS011;2841;44.526;11.360;2023-05-09T14:03:54;6.13;;;5.30;;
5638;SDS011;2841;44.526;11.360;2023-05-09T14:06:21;10.10;;;5.70;;
5638;SDS011;2841;44.526;11.360;2023-05-09T14:08:48;9.13;;;5.60;;
5638;SDS011;2841;44.526;11.360;2023-05-09T14:11:17;6.63;;;5.60;;
5638;SDS011;2841;44.526;11.360;2023-05-09T14:13:44;5.80;;;4.77;;
5638;SDS011;2841;44.526;11.360;2023-05-09T14:16:12;6.80;;;5.23;;
5638;SDS011;2841;44.526;11.360;2023-05-09T14:18:39;9.50;;;4.23;;
5638;SDS011;2841;44.526;11.360;2023-05-09T14:21:06;17.90;;;5.00;;
5638;SDS011;2841;44.526;11.360;2023-05-09T14:23:33;9.07;;;5.47;;
5638;SDS011;2841;44.526;11.360;2023-05-09T14:26:00;15.10;;;6.30;;
5638;SDS011;2841;44.526;11.360;2023-05-09T14:28:29;10.27;;;5.63;;
5638;SDS011;2841;44.526;11.360;2023-05-09T14:30:56;8.40;;;6.87;;
5638;SDS011;2841;44.526;11.360;2023-05-09T14:33:24;7.87;;;5.70;;
5638;SDS011;2841;44.526;11.360;2023-05-09T14:35:51;10.67;;;4.70;;
5638;SDS011;2841;44.526;11.360;2023-05-09T14:38:18;11.50;;;5.10;;
5638;SDS011;2841;44.526;11.360;2023-05-09T14:40:46;6.17;;;4.60;;
5638;SDS011;2841;44.526;11.360;2023-05-09T14:43:13;8.63;;;5.30;;
5638;SDS011;2841;44.526;11.360;2023-05-09T14:45:42;7.07;;;4.10;;
5638;SDS011;2841;44.526;11.360;2023-05-09T14:48:09;8.57;;;5.60;;
5638;SDS011;2841;44.526;11.360;2023-05-09T14:50:37;4.00;;;3.57;;
5638;SDS011;2841;44.526;11.360;2023-05-09T14:53:04;5.07;;;4.33;;
5638;SDS011;2841;44.526;11.360;2023-05-09T14:55:31;8.73;;;4.43;;
5638;SDS011;2841;44.526;11.360;2023-05-09T14:57:59;8.50;;;5.90;;
5638;SDS011;2841;44.526;11.360;2023-05-09T15:00:26;7.33;;;5.00;;